createdAt,value
2022-09-01T00:00:47.966Z,5.23
2022-09-01T00:03:15.446Z,7.87
2022-09-01T00:05:41.839Z,5.33
2022-09-01T00:08:08.294Z,4.80
2022-09-01T00:10:34.668Z,4.17
2022-09-01T00:13:02.480Z,5.03
2022-09-01T00:15:28.982Z,4.33
2022-09-01T00:17:55.437Z,5.00
2022-09-01T00:20:21.812Z,4.63
2022-09-01T00:22:48.472Z,4.53
2022-09-01T00:25:14.872Z,6.27
2022-09-01T00:27:41.301Z,4.73
2022-09-01T00:30:08.083Z,4.60
2022-09-01T00:32:34.465Z,5.13
2022-09-01T00:35:00.898Z,4.73
2022-09-01T00:37:27.814Z,4.50
2022-09-01T00:39:54.160Z,4.63
2022-09-01T00:42:20.840Z,4.87
2022-09-01T00:44:47.301Z,5.20
2022-09-01T00:47:14.867Z,4.67
2022-09-01T00:49:43.021Z,4.80
2022-09-01T00:52:15.731Z,4.53
2022-09-01T00:54:46.324Z,6.20
2022-09-01T00:57:13.168Z,5.20
2022-09-01T00:59:49.556Z,4.50
2022-09-01T01:02:16.476Z,5.30
2022-09-01T01:04:43.786Z,5.10
2022-09-01T01:07:10.740Z,4.83
2022-09-01T01:09:39.417Z,5.10
2022-09-01T01:12:06.620Z,7.10
2022-09-01T01:14:36.870Z,5.27
2022-09-01T01:17:03.492Z,5.23
2022-09-01T01:20:00.240Z,5.03
2022-09-01T01:22:58.031Z,5.30
2022-09-01T01:25:25.499Z,5.37
2022-09-01T01:27:52.413Z,5.60
2022-09-01T01:30:19.423Z,5.93
2022-09-01T01:32:47.600Z,5.43
2022-09-01T01:35:16.277Z,4.67
2022-09-01T01:37:48.983Z,6.03
2022-09-01T01:40:19.737Z,5.33
2022-09-01T01:42:47.407Z,4.93
2022-09-01T01:45:19.497Z,5.33
2022-09-01T01:47:53.260Z,4.80
2022-09-01T01:50:23.592Z,4.53
2022-09-01T01:52:53.172Z,4.73
2022-09-01T01:55:29.055Z,4.30
2022-09-01T01:57:57.896Z,4.90
2022-09-01T02:00:30.165Z,4.27
2022-09-01T02:02:58.171Z,4.20
2022-09-01T02:05:26.714Z,4.23
2022-09-01T02:07:59.917Z,5.47
2022-09-01T02:10:30.869Z,4.60
2022-09-01T02:13:04.673Z,4.27
2022-09-01T02:15:35.070Z,6.30
2022-09-01T02:18:04.975Z,4.57
2022-09-01T02:20:32.817Z,4.73
2022-09-01T02:23:10.513Z,4.77
2022-09-01T02:26:05.075Z,4.77
2022-09-01T02:28:32.162Z,4.70
2022-09-01T02:31:02.559Z,4.80
2022-09-01T02:33:30.764Z,4.93
2022-09-01T02:35:59.944Z,4.80
2022-09-01T02:38:29.666Z,4.90
2022-09-01T02:40:58.407Z,5.90
2022-09-01T02:43:28.152Z,5.23
2022-09-01T02:45:57.564Z,6.70
2022-09-01T02:48:26.489Z,6.97
2022-09-01T02:50:53.797Z,5.47
2022-09-01T02:53:20.603Z,5.00
2022-09-01T02:55:47.041Z,5.33
2022-09-01T02:58:16.330Z,7.07
2022-09-01T03:00:43.623Z,5.83
2022-09-01T03:03:12.665Z,5.53
2022-09-01T03:05:39.628Z,5.53
2022-09-01T03:08:08.852Z,5.73
2022-09-01T03:10:36.311Z,5.97
2022-09-01T03:13:06.586Z,6.10
2022-09-01T03:15:34.024Z,5.77
2022-09-01T03:18:02.007Z,6.40
2022-09-01T03:20:30.119Z,7.57
2022-09-01T03:22:57.892Z,6.10
2022-09-01T03:25:25.287Z,5.80
2022-09-01T03:27:52.855Z,6.17
2022-09-01T03:30:20.134Z,6.20
2022-09-01T03:32:48.074Z,5.83
2022-09-01T03:35:14.573Z,5.77
2022-09-01T03:37:44.217Z,6.30
2022-09-01T03:40:11.581Z,5.73
2022-09-01T03:42:38.130Z,6.30
2022-09-01T03:45:09.220Z,6.63
2022-09-01T03:47:40.172Z,6.97
2022-09-01T03:50:12.463Z,7.73
2022-09-01T03:52:40.189Z,6.87
2022-09-01T03:55:07.173Z,6.30
2022-09-01T03:57:37.468Z,6.97
2022-09-01T04:00:05.010Z,6.70
2022-09-01T04:02:40.887Z,6.63
2022-09-01T04:05:08.557Z,6.87
2022-09-01T04:07:35.065Z,6.40
2022-09-01T04:10:01.720Z,5.97
2022-09-01T04:12:30.780Z,6.43
2022-09-01T04:14:57.257Z,5.97
2022-09-01T04:17:42.193Z,7.13
2022-09-01T04:20:09.357Z,6.33
2022-09-01T04:22:38.306Z,6.33
2022-09-01T04:25:05.737Z,6.67
2022-09-01T04:27:32.174Z,7.77
2022-09-01T04:29:58.666Z,5.73
2022-09-01T04:32:28.446Z,6.67
2022-09-01T04:34:58.271Z,6.50
2022-09-01T04:37:24.944Z,5.70
2022-09-01T04:39:57.536Z,6.07
2022-09-01T04:42:27.211Z,6.07
2022-09-01T04:44:54.781Z,5.70
2022-09-01T04:47:35.238Z,6.10
2022-09-01T04:50:04.339Z,6.33
2022-09-01T04:52:31.946Z,5.50
2022-09-01T04:55:00.650Z,5.53
2022-09-01T04:57:27.622Z,6.30
2022-09-01T04:59:56.842Z,6.17
2022-09-01T05:02:27.162Z,5.30
2022-09-01T05:04:54.195Z,5.63
2022-09-01T05:07:21.447Z,5.27
2022-09-01T05:09:47.926Z,5.57
2022-09-01T05:12:35.504Z,6.23
2022-09-01T05:15:06.360Z,6.00
2022-09-01T05:17:33.312Z,5.70
2022-09-01T05:19:59.862Z,5.50
2022-09-01T05:22:27.005Z,5.73
2022-09-01T05:25:04.951Z,5.60
2022-09-01T05:27:32.394Z,5.77
2022-09-01T05:30:00.257Z,5.80
2022-09-01T05:32:27.480Z,5.17
2022-09-01T05:34:54.440Z,4.93
2022-09-01T05:37:20.965Z,4.40
2022-09-01T05:39:47.400Z,4.30
2022-09-01T05:42:13.869Z,4.07
2022-09-01T05:44:44.212Z,4.77
2022-09-01T05:47:14.792Z,4.00
2022-09-01T05:49:49.846Z,4.87
2022-09-01T05:52:16.471Z,4.13
2022-09-01T05:54:47.966Z,3.60
2022-09-01T05:57:33.802Z,3.80
2022-09-01T06:00:02.145Z,3.90
2022-09-01T06:02:29.326Z,3.93
2022-09-01T06:04:57.631Z,4.33
2022-09-01T06:07:30.483Z,4.60
2022-09-01T06:10:00.440Z,3.83
2022-09-01T06:12:28.056Z,3.87
2022-09-01T06:15:01.274Z,3.77
2022-09-01T06:17:28.867Z,3.73
2022-09-01T06:19:58.496Z,3.80
2022-09-01T06:22:27.878Z,3.63
2022-09-01T06:25:01.070Z,4.10
2022-09-01T06:27:32.193Z,3.73
2022-09-01T06:29:59.613Z,4.53
2022-09-01T06:32:26.978Z,3.80
2022-09-01T06:34:57.934Z,2.93
2022-09-01T06:37:25.672Z,2.87
2022-09-01T06:39:55.362Z,3.13
2022-09-01T06:42:23.511Z,3.63
2022-09-01T06:44:58.284Z,2.43
2022-09-01T06:47:25.017Z,3.77
2022-09-01T06:49:55.927Z,2.90
2022-09-01T06:52:25.672Z,3.70
2022-09-01T06:54:53.981Z,7.37
2022-09-01T07:00:20.922Z,3.10
2022-09-01T07:02:53.417Z,2.97
2022-09-01T07:14:23.328Z,4.23
2022-09-01T07:16:53.335Z,3.30
2022-09-01T07:19:53.052Z,3.30
2022-09-01T07:22:37.753Z,3.23
2022-09-01T07:28:05.696Z,4.07
2022-09-01T07:30:33.407Z,4.17
2022-09-01T07:33:41.626Z,5.83
2022-09-01T07:39:47.239Z,5.40
2022-09-01T07:42:56.656Z,3.70
2022-09-01T07:44:26.742Z,4.53
2022-09-01T07:47:52.512Z,5.90
2022-09-01T07:52:49.649Z,4.63
2022-09-01T07:55:16.768Z,6.00
2022-09-01T07:57:45.815Z,4.93
2022-09-01T08:00:15.300Z,5.10
2022-09-01T08:02:47.699Z,5.33
2022-09-01T08:05:18.479Z,6.07
2022-09-01T08:07:54.614Z,6.93
2022-09-01T08:10:26.771Z,7.27
2022-09-01T08:12:57.324Z,6.40
2022-09-01T08:15:41.232Z,6.23
2022-09-01T08:18:13.878Z,6.27
2022-09-01T08:20:45.296Z,5.30
2022-09-01T08:23:26.761Z,5.43
2022-09-01T08:25:53.962Z,5.43
2022-09-01T08:28:26.449Z,5.03
2022-09-01T08:30:54.798Z,5.57
2022-09-01T08:33:23.179Z,5.80
2022-09-01T08:35:49.628Z,5.27
2022-09-01T08:38:17.767Z,5.13
2022-09-01T08:40:51.420Z,5.57
2022-09-01T08:43:41.732Z,5.03
2022-09-01T08:46:24.857Z,6.17
2022-09-01T08:52:25.368Z,5.20
2022-09-01T08:55:06.101Z,5.77
2022-09-01T08:57:34.909Z,5.80
2022-09-01T09:00:20.372Z,4.90
2022-09-01T09:03:01.859Z,5.37
2022-09-01T09:05:35.698Z,5.10
2022-09-01T09:08:26.626Z,6.47
2022-09-01T09:11:01.891Z,6.07
2022-09-01T09:13:40.348Z,5.43
2022-09-01T09:16:09.821Z,5.10
2022-09-01T09:18:39.738Z,5.27
2022-09-01T09:21:12.086Z,5.27
2022-09-01T09:23:41.268Z,6.37
2022-09-01T09:26:08.345Z,5.43
2022-09-01T09:28:35.073Z,5.67
2022-09-01T09:31:30.840Z,13.17
2022-09-01T09:33:58.209Z,5.37
2022-09-01T09:36:36.083Z,4.63
2022-09-01T09:39:12.845Z,4.77
2022-09-01T09:41:40.572Z,4.40
2022-09-01T09:44:26.701Z,4.80
2022-09-01T09:46:53.195Z,4.70
2022-09-01T09:49:36.659Z,5.03
2022-09-01T09:52:10.513Z,4.53
2022-09-01T09:54:38.838Z,4.90
2022-09-01T09:57:08.281Z,4.83
2022-09-01T10:00:00.955Z,4.37
2022-09-01T10:02:35.851Z,4.47
2022-09-01T10:05:22.392Z,4.87
2022-09-01T10:07:49.143Z,4.80
2022-09-01T10:10:58.043Z,5.10
2022-09-01T10:13:26.915Z,4.17
2022-09-01T10:15:55.946Z,5.67
2022-09-01T10:18:28.996Z,4.57
2022-09-01T10:21:01.737Z,4.67
2022-09-01T10:23:31.079Z,4.37
2022-09-01T10:26:06.206Z,5.00
2022-09-01T10:28:33.937Z,5.23
2022-09-01T10:31:01.617Z,4.33
2022-09-01T10:33:28.084Z,4.20
2022-09-01T10:35:55.022Z,5.10
2022-09-01T10:38:29.427Z,5.10
2022-09-01T10:41:14.139Z,4.83
2022-09-01T10:43:42.786Z,4.50
2022-09-01T10:46:38.571Z,4.80
2022-09-01T10:49:25.207Z,4.57
2022-09-01T10:51:56.499Z,5.07
2022-09-01T10:54:51.140Z,4.17
2022-09-01T10:57:30.659Z,4.23
2022-09-01T11:03:30.497Z,4.20
2022-09-01T11:06:11.038Z,4.37
2022-09-01T11:08:38.336Z,5.00
2022-09-01T11:11:07.884Z,5.33
2022-09-01T11:13:37.519Z,5.13
2022-09-01T11:16:45.800Z,4.43
2022-09-01T11:19:35.821Z,5.20
2022-09-01T11:22:05.337Z,5.00
2022-09-01T11:24:53.416Z,5.30
2022-09-01T11:27:46.233Z,4.80
2022-09-01T11:30:16.355Z,5.00
2022-09-01T11:32:47.002Z,4.87
2022-09-01T11:35:18.988Z,7.80
2022-09-01T11:37:49.742Z,4.77
2022-09-01T11:40:21.517Z,4.83
2022-09-01T11:42:48.258Z,4.47
2022-09-01T11:45:21.627Z,5.10
2022-09-01T11:47:50.420Z,5.00
2022-09-01T11:50:20.072Z,4.80
2022-09-01T11:52:54.307Z,5.07
2022-09-01T11:55:35.334Z,5.33
2022-09-01T11:58:02.156Z,4.40
2022-09-01T12:00:30.419Z,4.17
2022-09-01T12:02:57.129Z,4.57
2022-09-01T12:05:31.647Z,5.00
2022-09-01T12:07:58.845Z,4.27
2022-09-01T12:10:31.481Z,5.03
2022-09-01T12:13:01.623Z,4.03
2022-09-01T12:15:28.867Z,4.23
2022-09-01T12:18:08.195Z,3.97
2022-09-01T12:20:35.840Z,4.43
2022-09-01T12:23:02.512Z,5.00
2022-09-01T12:25:30.675Z,5.77
2022-09-01T12:27:59.077Z,4.30
2022-09-01T12:30:25.863Z,3.87
2022-09-01T12:33:22.933Z,4.10
2022-09-01T12:35:39.373Z,3.73
2022-09-01T12:38:21.238Z,4.87
2022-09-01T12:40:49.748Z,4.23
2022-09-01T12:43:33.021Z,4.20
2022-09-01T12:46:02.849Z,5.00
2022-09-01T12:48:35.022Z,4.77
2022-09-01T12:51:02.749Z,4.83
2022-09-01T12:53:32.444Z,5.83
2022-09-01T12:56:01.301Z,4.60
2022-09-01T12:58:30.094Z,4.77
2022-09-01T13:00:58.515Z,4.67
2022-09-01T13:03:27.523Z,4.70
2022-09-01T13:05:54.678Z,5.00
2022-09-01T13:08:22.556Z,4.70
2022-09-01T13:10:53.521Z,4.60
2022-09-01T13:13:20.500Z,4.70
2022-09-01T13:15:48.921Z,4.50
2022-09-01T13:18:16.127Z,5.43
2022-09-01T13:20:42.722Z,4.33
2022-09-01T13:23:09.544Z,4.53
2022-09-01T13:25:35.939Z,4.63
2022-09-01T13:28:02.819Z,4.30
2022-09-01T13:30:29.971Z,5.07
2022-09-01T13:35:43.813Z,3.83
2022-09-01T13:38:10.243Z,4.10
2022-09-01T13:40:36.864Z,3.90
2022-09-01T13:43:04.680Z,4.33
2022-09-01T13:45:31.991Z,4.83
2022-09-01T13:53:32.716Z,3.70
2022-09-01T13:55:59.226Z,4.20
2022-09-01T13:58:25.661Z,6.50
2022-09-01T14:00:52.699Z,5.03
2022-09-01T14:03:20.845Z,4.23
2022-09-01T14:05:48.492Z,4.07
2022-09-01T14:08:17.289Z,4.53
2022-09-01T14:10:44.916Z,3.50
2022-09-01T14:13:12.103Z,4.07
2022-09-01T14:15:38.701Z,3.50
2022-09-01T14:18:05.167Z,3.40
2022-09-01T14:20:37.167Z,3.17
2022-09-01T14:23:04.520Z,2.50
2022-09-01T14:25:31.613Z,2.57
2022-09-01T14:27:58.093Z,2.90
2022-09-01T14:30:30.491Z,2.83
2022-09-01T14:32:59.406Z,2.57
2022-09-01T14:35:26.321Z,3.07
2022-09-01T14:37:53.807Z,2.53
2022-09-01T14:40:23.543Z,2.20
2022-09-01T14:42:52.416Z,2.47
2022-09-01T14:45:20.833Z,3.03
2022-09-01T14:47:48.561Z,2.87
2022-09-01T14:50:19.928Z,3.13
2022-09-01T14:52:50.058Z,2.60
2022-09-01T14:55:17.075Z,2.57
2022-09-01T14:57:44.588Z,2.50
2022-09-01T15:00:14.622Z,2.87
2022-09-01T15:02:41.807Z,3.37
2022-09-01T15:05:08.486Z,2.73
2022-09-01T15:07:35.324Z,2.20
2022-09-01T15:10:01.987Z,2.67
2022-09-01T15:12:30.922Z,2.93
2022-09-01T15:14:58.844Z,2.53
2022-09-01T15:17:25.819Z,2.60
2022-09-01T15:19:52.416Z,2.80
2022-09-01T15:22:19.429Z,2.67
2022-09-01T15:24:46.337Z,2.53
2022-09-01T15:27:12.743Z,3.00
2022-09-01T15:29:45.920Z,3.20
2022-09-01T15:32:17.029Z,2.80
2022-09-01T15:34:54.102Z,3.00
2022-09-01T15:37:20.535Z,3.50
2022-09-01T15:39:46.924Z,2.80
2022-09-01T15:42:13.355Z,3.87
2022-09-01T15:44:39.762Z,2.97
2022-09-01T15:47:06.203Z,3.63
2022-09-01T15:49:32.622Z,2.97
2022-09-01T15:51:58.997Z,2.93
2022-09-01T15:54:30.320Z,3.10
2022-09-01T15:56:57.167Z,2.93
2022-09-01T15:59:23.615Z,2.93
2022-09-01T16:01:52.404Z,2.50
2022-09-01T16:04:21.894Z,3.33
2022-09-01T16:06:50.951Z,3.03
2022-09-01T16:09:25.369Z,3.37
2022-09-01T16:11:51.850Z,3.07
2022-09-01T16:14:20.675Z,2.67
2022-09-01T16:16:51.834Z,3.07
2022-09-01T16:19:18.212Z,2.87
2022-09-01T16:21:44.580Z,3.30
2022-09-01T16:24:13.577Z,3.47
2022-09-01T16:26:41.114Z,3.40
2022-09-01T16:29:11.158Z,3.30
2022-09-01T16:31:41.922Z,3.27
2022-09-01T16:34:18.317Z,3.43
2022-09-01T16:37:04.482Z,3.07
2022-09-01T16:39:30.898Z,3.30
2022-09-01T16:42:02.752Z,4.20
2022-09-01T16:44:47.284Z,3.50
2022-09-01T16:47:25.063Z,3.43
2022-09-01T16:50:05.287Z,3.40
2022-09-01T16:52:37.778Z,3.77
2022-09-01T16:55:05.175Z,3.13
2022-09-01T16:57:49.855Z,4.60
2022-09-01T17:00:18.607Z,3.60
2022-09-01T17:02:59.175Z,2.87
2022-09-01T17:05:33.157Z,3.40
2022-09-01T17:08:18.402Z,3.50
2022-09-01T17:10:55.029Z,3.40
2022-09-01T17:13:25.932Z,3.30
2022-09-01T17:16:02.740Z,3.17
2022-09-01T17:18:32.154Z,3.63
2022-09-01T17:21:06.805Z,3.50
2022-09-01T17:23:39.429Z,3.97
2022-09-01T17:26:26.659Z,3.00
2022-09-01T17:28:55.423Z,3.60
2022-09-01T17:31:28.345Z,3.30
2022-09-01T17:34:07.519Z,3.13
2022-09-01T17:36:52.609Z,3.27
2022-09-01T17:39:36.404Z,3.50
2022-09-01T17:42:07.320Z,3.50
2022-09-01T17:44:35.620Z,3.10
2022-09-01T17:47:31.409Z,3.37
2022-09-01T17:50:02.002Z,3.30
2022-09-01T17:52:40.680Z,3.17
2022-09-01T17:55:11.636Z,3.27
2022-09-01T17:57:44.354Z,3.27
2022-09-01T18:00:29.670Z,3.40
2022-09-01T18:02:58.809Z,3.57
2022-09-01T18:05:25.997Z,4.80
2022-09-01T18:08:01.634Z,2.50
2022-09-01T18:10:37.044Z,2.93
2022-09-01T18:13:05.617Z,3.00
2022-09-01T18:15:40.410Z,4.13
2022-09-01T18:18:16.640Z,3.03
2022-09-01T18:20:48.092Z,3.00
2022-09-01T18:23:19.370Z,3.07
2022-09-01T18:26:03.905Z,4.50
2022-09-01T18:28:30.296Z,2.73
2022-09-01T18:31:15.128Z,3.30
2022-09-01T18:33:45.788Z,2.70
2022-09-01T18:36:26.305Z,2.77
2022-09-01T18:38:57.422Z,2.90
2022-09-01T18:41:23.809Z,3.20
2022-09-01T18:44:02.733Z,3.23
2022-09-01T18:46:39.267Z,3.17
2022-09-01T18:49:23.757Z,3.60
2022-09-01T18:51:56.589Z,5.00
2022-09-01T18:54:29.041Z,4.23
2022-09-01T18:56:59.713Z,4.40
2022-09-01T18:59:44.584Z,5.00
2022-09-01T19:02:26.438Z,4.60
2022-09-01T19:04:57.392Z,4.50
2022-09-01T19:07:41.677Z,4.50
2022-09-01T19:10:22.351Z,5.73
2022-09-01T19:13:05.591Z,3.97
2022-09-01T19:15:35.196Z,3.73
2022-09-01T19:18:02.183Z,3.83
2022-09-01T19:20:43.732Z,3.60
2022-09-01T19:23:13.482Z,4.37
2022-09-01T19:25:41.268Z,3.83
2022-09-01T19:28:27.011Z,3.43
2022-09-01T19:30:56.503Z,5.33
2022-09-01T19:33:25.615Z,3.17
2022-09-01T19:35:55.480Z,5.23
2022-09-01T19:38:27.599Z,6.20
2022-09-01T19:40:58.780Z,3.80
2022-09-01T19:43:28.457Z,3.47
2022-09-01T19:46:10.969Z,3.63
2022-09-01T19:48:41.228Z,3.80
2022-09-01T19:51:13.861Z,3.87
2022-09-01T19:53:55.572Z,3.97
2022-09-01T19:56:47.486Z,4.00
2022-09-01T19:59:22.218Z,4.60
2022-09-01T20:01:59.991Z,4.13
2022-09-01T20:04:27.259Z,4.33
2022-09-01T20:06:57.675Z,3.87
2022-09-01T20:09:28.787Z,3.73
2022-09-01T20:11:58.288Z,5.63
2022-09-01T20:14:27.656Z,4.30
2022-09-01T20:16:57.602Z,3.97
2022-09-01T20:19:42.538Z,4.40
2022-09-01T20:22:16.102Z,5.97
2022-09-01T20:24:42.854Z,4.27
2022-09-01T20:27:11.997Z,4.43
2022-09-01T20:29:44.858Z,3.70
2022-09-01T20:32:12.141Z,4.50
2022-09-01T20:34:44.712Z,4.13
2022-09-01T20:37:29.898Z,3.73
2022-09-01T20:40:04.738Z,4.03
2022-09-01T20:42:46.495Z,3.60
2022-09-01T20:45:16.196Z,3.50
2022-09-01T20:47:45.856Z,3.73
2022-09-01T20:50:13.817Z,3.53
2022-09-01T20:52:50.140Z,3.97
2022-09-01T20:55:19.425Z,4.00
2022-09-01T20:57:57.838Z,3.70
2022-09-01T21:00:26.061Z,5.60
2022-09-01T21:03:02.153Z,4.23
2022-09-01T21:05:47.301Z,3.93
2022-09-01T21:08:14.486Z,3.77
2022-09-01T21:10:47.166Z,3.47
2022-09-01T21:13:22.846Z,4.00
2022-09-01T21:16:03.593Z,4.00
2022-09-01T21:18:35.926Z,4.30
2022-09-01T21:21:08.171Z,4.00
2022-09-01T21:23:34.693Z,3.77
2022-09-01T21:26:01.606Z,3.73
2022-09-01T21:28:28.311Z,3.80
2022-09-01T21:30:57.543Z,3.97
2022-09-01T21:33:29.014Z,3.83
2022-09-01T21:35:55.583Z,4.00
2022-09-01T21:38:21.959Z,3.70
2022-09-01T21:40:48.945Z,3.70
2022-09-01T21:43:18.488Z,3.87
2022-09-01T21:45:45.204Z,3.80
2022-09-01T21:48:12.201Z,3.83
2022-09-01T21:50:40.474Z,3.83
2022-09-01T21:53:07.439Z,3.63
2022-09-01T21:55:34.085Z,3.73
2022-09-01T21:58:00.654Z,3.90
2022-09-01T22:00:28.512Z,3.80
2022-09-01T22:02:57.566Z,4.00
2022-09-01T22:05:26.201Z,4.10
2022-09-01T22:07:53.263Z,4.07
2022-09-01T22:10:21.091Z,3.43
2022-09-01T22:12:48.499Z,3.50
2022-09-01T22:15:17.243Z,3.50
2022-09-01T22:17:44.801Z,3.53
2022-09-01T22:20:12.894Z,3.90
2022-09-01T22:22:39.436Z,4.00
2022-09-01T22:25:07.081Z,3.60
2022-09-01T22:27:33.501Z,3.73
2022-09-01T22:29:59.927Z,3.83
2022-09-01T22:32:32.405Z,4.10
2022-09-01T22:34:59.393Z,3.70
2022-09-01T22:37:26.181Z,4.23
2022-09-01T22:39:52.558Z,4.00
2022-09-01T22:42:18.956Z,4.07
2022-09-01T22:44:45.338Z,3.70
2022-09-01T22:47:11.820Z,4.07
2022-09-01T22:49:38.240Z,4.20
2022-09-01T22:52:04.673Z,3.80
2022-09-01T22:54:31.066Z,4.63
2022-09-01T22:56:58.686Z,3.90
2022-09-01T22:59:25.958Z,4.00
2022-09-01T23:01:53.024Z,4.20
2022-09-01T23:04:19.557Z,4.20
2022-09-01T23:06:47.417Z,4.87
2022-09-01T23:09:13.943Z,4.17
2022-09-01T23:11:40.399Z,4.47
2022-09-01T23:14:06.862Z,4.90
2022-09-01T23:16:33.540Z,4.40
2022-09-01T23:19:00.105Z,4.00
2022-09-01T23:21:28.354Z,4.50
2022-09-01T23:23:58.279Z,4.33
2022-09-01T23:26:24.876Z,4.20
2022-09-01T23:28:51.303Z,4.70
2022-09-01T23:31:19.390Z,5.13
2022-09-01T23:33:46.281Z,4.60
2022-09-01T23:36:14.199Z,4.57
2022-09-01T23:38:41.350Z,4.10
2022-09-01T23:41:09.686Z,4.23
2022-09-01T23:43:36.866Z,4.23
2022-09-01T23:46:03.490Z,4.57
2022-09-01T23:48:30.114Z,4.60
2022-09-01T23:50:58.221Z,5.40
2022-09-01T23:53:26.083Z,4.70
2022-09-01T23:55:53.811Z,4.47
2022-09-01T23:58:21.007Z,4.43
